KAMG

Details ICAO KAMG
Name BACON CO
Region United States
Timezone America/New_York (UTC-5.0)
Plans Departing 4
Arriving 2
Stats Elevation 200 ft / 61 m (AMSL)
Location 31.536057° -82.506553°
Runways 1
Magnetic Variation 6.086° W
Sunrise 2017-12-10 12:20:14 UTC / 2017-12-10 07:20:14 Local
Sunset 2017-12-10 22:28:33 UTC / 2017-12-10 17:28:33 Local
Advertisement - Login to hide

Runways

ID Width Length Bearing (true) Bearing (mag) Surface Threshold Offset Overrun Length
15 100 ft / 30 m 5,009 ft / 1,527 m 151.01° 157.10° Asphalt 0 ft / 0 m 0 ft / 0 m
33 100 ft / 30 m 5,009 ft / 1,527 m 331.01° 337.10° Asphalt 0 ft / 0 m 0 ft / 0 m

Map

Weather


0- 5 10 15 20 25 30 35+ Temperature / ° C

Clouds and Precipitation
Forecast for 2017-12-11 00:00 UTC. Updated an hour ago

Ground ~20,000 ft ~40,000 ft Winds

METAR

KAMG 102353Z AUTO 00000KT 10SM CLR 03/00 A3026 RMK AO2 SLP249 T00330000 10111 20028 53006

TAF

Not found

Frequencies

Recorded 118.32 MHz ASOS
Unicom 122.70 MHz CTAF/UNICOM
Warning: Do not use this data for real-world aviation or navigation. No guarantee of current accuracy is given.